Terminal Aerodrome Forecast
Issued by NWS

Current Version | Previous Version | Graphics & Text | Print | Product List | Glossary On
Versions: 1 2 3 4 5 6 7 8 9 10 11 12 13 14
000
FTUS41 KRNK 241144
TAFLWB
TAF
KLWB 241144Z 2412/2512 24008KT P6SM BKN015 OVC250
     FM241600 28009G17KT P6SM SCT040 BKN250
     FM250200 00000KT P6SM SCT250=

USA.gov is the U.S. government's official web portal to all federal, state and local government web resources and services.